Time;durP1;ratioP1;P1;durP2;ratioP2;P2;SDS_P1;SDS_P2;PMS_P1;PMS_P2;Temp;Humidity;BMP_temperature;BMP_pressure;BME280_temperature;BME280_humidity;BME280_pressure;Samples;Min_cycle;Max_cycle;Signal;HPM_P1;HPM_P2
2022/10/24 00:00:44;;;;;;;36.17;24.65;;;13.30;99.90;;;;;;2088913;28;20025;-73
2022/10/24 00:01:44;;;;;;;34.83;25.13;;;13.30;99.90;;;;;;2088899;28;20025;-74
2022/10/24 00:02:45;;;;;;;30.40;22.88;;;13.30;99.90;;;;;;2088196;28;20025;-73
2022/10/24 00:03:46;;;;;;;30.45;22.35;;;13.30;99.90;;;;;;2088390;28;20840;-73
2022/10/24 00:04:47;;;;;;;27.13;21.13;;;13.20;99.90;;;;;;2088230;28;20112;-73
2022/10/24 00:05:48;;;;;;;28.98;21.23;;;13.20;99.90;;;;;;2079978;28;20025;-73
2022/10/24 00:06:48;;;;;;;26.45;20.33;;;13.20;99.90;;;;;;2088164;28;20033;-73
2022/10/24 00:07:49;;;;;;;33.65;24.27;;;13.20;99.90;;;;;;2088765;28;20017;-73
2022/10/24 00:08:50;;;;;;;35.30;25.55;;;13.10;99.90;;;;;;2087853;28;20037;-72
2022/10/24 00:09:51;;;;;;;37.10;26.48;;;13.10;99.90;;;;;;2080194;28;20038;-72
2022/10/24 00:10:52;;;;;;;35.88;25.10;;;13.10;99.90;;;;;;2079969;28;20025;-72
2022/10/24 00:11:52;;;;;;;33.42;24.00;;;13.10;99.90;;;;;;2087249;28;20045;-72
2022/10/24 00:12:54;;;;;;;33.47;24.00;;;13.10;99.90;;;;;;2081624;28;20017;-73
2022/10/24 00:13:56;;;;;;;35.10;24.90;;;13.10;99.90;;;;;;2071858;28;20115;-71
2022/10/24 00:14:57;;;;;;;34.13;24.73;;;13.10;99.90;;;;;;2072058;28;20026;-72
2022/10/24 00:15:57;;;;;;;37.22;25.50;;;13.10;99.90;;;;;;2080117;28;20026;-71
2022/10/24 00:16:58;;;;;;;36.90;26.13;;;13.10;99.90;;;;;;2079513;28;20044;-72
2022/10/24 00:17:58;;;;;;;37.83;27.40;;;13.10;99.90;;;;;;2080041;28;20033;-71
2022/10/24 00:18:59;;;;;;;37.15;25.33;;;13.10;99.90;;;;;;2080640;28;20032;-72
2022/10/24 00:20:00;;;;;;;31.60;23.52;;;13.10;99.90;;;;;;2080819;28;20043;-72
2022/10/24 00:21:01;;;;;;;37.05;25.98;;;13.10;99.90;;;;;;2080733;28;20490;-72
2022/10/24 00:22:02;;;;;;;37.10;25.20;;;13.10;99.90;;;;;;2080736;28;20029;-72
2022/10/24 00:23:03;;;;;;;37.53;26.35;;;13.10;99.90;;;;;;2080632;28;20052;-72
2022/10/24 00:24:05;;;;;;;36.55;25.92;;;13.10;99.90;;;;;;2080050;28;20095;-72
2022/10/24 00:25:06;;;;;;;33.45;25.00;;;13.10;99.90;;;;;;2079835;28;20032;-75
2022/10/24 00:26:07;;;;;;;31.20;23.58;;;13.10;99.90;;;;;;2079884;28;20033;-73
2022/10/24 00:27:08;;;;;;;37.72;26.98;;;13.10;99.90;;;;;;2088054;28;20098;-73
2022/10/24 00:28:09;;;;;;;36.08;25.10;;;13.10;99.90;;;;;;2088180;28;20035;-73
2022/10/24 00:29:10;;;;;;;37.53;25.52;;;13.10;99.90;;;;;;2079578;28;20028;-73
2022/10/24 00:30:11;;;;;;;33.80;24.73;;;13.10;99.90;;;;;;2079728;28;20026;-73
2022/10/24 00:31:15;;;;;;;34.85;25.38;;;13.10;99.90;;;;;;2080120;28;20033;-73
2022/10/24 00:32:15;;;;;;;36.53;25.63;;;13.10;99.90;;;;;;2080290;28;20025;-73
2022/10/24 00:33:16;;;;;;;34.88;25.83;;;13.10;99.90;;;;;;2080313;28;20535;-74
2022/10/24 00:34:17;;;;;;;35.75;25.48;;;13.10;99.90;;;;;;2080201;28;20033;-73
2022/10/24 00:35:18;;;;;;;40.03;28.05;;;13.10;99.90;;;;;;2079400;28;20048;-73
2022/10/24 00:36:21;;;;;;;35.45;27.02;;;13.10;99.90;;;;;;2079725;28;20561;-72
2022/10/24 00:37:21;;;;;;;36.63;26.27;;;13.10;99.90;;;;;;2080405;28;20306;-73
2022/10/24 00:38:22;;;;;;;31.70;23.83;;;13.10;99.90;;;;;;2080241;28;20026;-72
2022/10/24 00:39:23;;;;;;;30.50;22.58;;;13.10;99.90;;;;;;2079859;28;20040;-73
2022/10/24 00:40:23;;;;;;;31.02;22.48;;;13.10;99.90;;;;;;2080322;28;20053;-73
2022/10/24 00:41:37;;;;;;;30.73;22.70;;;13.10;99.90;;;;;;2080361;28;20029;-73
2022/10/24 00:42:38;;;;;;;32.60;24.15;;;13.10;99.90;;;;;;2079640;28;20075;-73
2022/10/24 00:43:39;;;;;;;31.90;24.05;;;13.10;99.90;;;;;;2071220;28;20044;-73
2022/10/24 00:44:41;;;;;;;32.83;23.73;;;13.10;99.90;;;;;;2079375;28;20052;-73
2022/10/24 00:45:56;;;;;;;35.15;25.35;;;13.10;99.90;;;;;;2080225;28;20025;-72
2022/10/24 00:47:31;;;;;;;32.70;24.00;;;13.10;99.90;;;;;;2080274;28;20033;-73
2022/10/24 00:48:53;;;;;;;31.35;22.08;;;13.10;99.90;;;;;;2054739;28;20039;-75
2022/10/24 00:50:12;;;;;;;34.20;24.48;;;13.10;99.90;;;;;;2075113;28;20171;-73
2022/10/24 00:51:23;;;;;;;32.85;24.65;;;13.20;99.90;;;;;;2079466;28;20653;-73
2022/10/24 00:52:28;;;;;;;36.38;24.38;;;13.10;99.90;;;;;;2086441;28;20045;-72
2022/10/24 00:53:31;;;;;;;30.85;22.98;;;13.20;99.90;;;;;;2080887;28;20025;-72
2022/10/24 00:54:32;;;;;;;31.25;23.33;;;13.20;99.90;;;;;;2088159;28;20045;-72
2022/10/24 00:55:33;;;;;;;30.38;22.67;;;13.20;99.90;;;;;;2080595;28;20029;-73
2022/10/24 00:56:40;;;;;;;28.58;21.45;;;13.20;99.90;;;;;;2079438;28;20026;-73
2022/10/24 00:57:44;;;;;;;32.03;23.63;;;13.20;99.90;;;;;;2080073;28;20541;-73
2022/10/24 00:58:45;;;;;;;32.17;24.23;;;13.20;99.90;;;;;;2080122;28;20040;-73
2022/10/24 00:59:51;;;;;;;29.92;22.45;;;13.20;99.90;;;;;;2080305;28;20132;-73
2022/10/24 01:00:52;;;;;;;29.52;22.30;;;13.20;99.90;;;;;;2080221;28;20033;-73
2022/10/24 01:01:53;;;;;;;37.10;25.17;;;13.20;99.90;;;;;;2080234;28;20040;-74
2022/10/24 01:02:54;;;;;;;33.38;24.27;;;13.20;99.90;;;;;;2080110;28;20029;-73
2022/10/24 01:03:55;;;;;;;31.08;22.98;;;13.20;99.90;;;;;;2080020;28;20104;-73
2022/10/24 01:04:56;;;;;;;32.53;22.35;;;13.20;99.90;;;;;;2079483;28;20887;-73
2022/10/24 01:06:11;;;;;;;29.98;22.27;;;13.20;99.90;;;;;;2079586;28;20176;-73
2022/10/24 01:07:25;;;;;;;29.40;21.50;;;13.20;99.90;;;;;;2080000;28;20043;-73
2022/10/24 01:08:49;;;;;;;26.77;19.58;;;13.20;99.90;;;;;;2076758;28;20033;-73
2022/10/24 01:09:59;;;;;;;34.63;23.20;;;13.20;99.90;;;;;;2074537;28;20018;-73
2022/10/24 01:11:30;;;;;;;30.02;22.08;;;13.20;99.90;;;;;;2080669;28;20783;-73
2022/10/24 01:12:40;;;;;;;30.33;21.80;;;13.20;99.90;;;;;;2080840;28;20480;-73
2022/10/24 01:14:10;;;;;;;26.80;20.73;;;13.20;99.90;;;;;;2080804;28;20467;-74
2022/10/24 01:15:30;;;;;;;30.55;22.08;;;13.20;99.90;;;;;;2080916;28;20029;-74
2022/10/24 01:16:33;;;;;;;28.55;20.58;;;13.20;99.90;;;;;;2081077;28;20083;-73
2022/10/24 01:17:50;;;;;;;28.60;21.77;;;13.20;99.90;;;;;;2080797;28;20025;-73
2022/10/24 01:19:10;;;;;;;32.17;23.27;;;13.20;99.90;;;;;;2080623;28;20797;-72
2022/10/24 01:20:38;;;;;;;34.67;24.70;;;13.20;99.90;;;;;;2080679;28;20057;-74
2022/10/24 01:21:55;;;;;;;31.17;22.67;;;13.20;99.90;;;;;;2080104;28;20053;-74
2022/10/24 01:23:20;;;;;;;29.77;20.90;;;13.20;99.90;;;;;;2080281;28;20110;-74
2022/10/24 01:24:36;;;;;;;33.35;22.95;;;13.20;99.90;;;;;;2079922;28;20029;-73
2022/10/24 01:26:22;;;;;;;33.13;22.90;;;13.20;99.90;;;;;;2080174;28;20039;-73
2022/10/24 01:27:54;;;;;;;31.75;21.48;;;13.20;99.90;;;;;;2056083;28;20138;-73
2022/10/24 01:29:11;;;;;;;32.25;23.35;;;13.20;99.90;;;;;;2079763;28;20025;-73
2022/10/24 01:30:13;;;;;;;32.83;22.10;;;13.20;99.90;;;;;;2079253;28;20037;-73
2022/10/24 01:31:23;;;;;;;33.83;21.60;;;13.20;99.90;;;;;;2079389;28;20400;-74
2022/10/24 01:32:35;;;;;;;32.00;21.75;;;13.20;99.90;;;;;;2080083;28;20030;-74
2022/10/24 01:33:45;;;;;;;32.00;21.77;;;13.20;99.90;;;;;;2080156;28;20033;-76
2022/10/24 01:35:13;;;;;;;30.67;22.17;;;13.20;99.90;;;;;;2080204;28;20029;-74
2022/10/24 01:36:46;;;;;;;32.63;21.92;;;13.20;99.90;;;;;;2080100;28;20045;-74
2022/10/24 01:38:13;;;;;;;27.23;20.65;;;13.20;99.90;;;;;;2080306;28;20041;-75
2022/10/24 01:39:19;;;;;;;26.77;20.58;;;13.30;99.90;;;;;;2079565;28;20029;-73
2022/10/24 01:40:25;;;;;;;28.92;21.42;;;13.20;99.90;;;;;;2077445;28;20096;-76
2022/10/24 01:41:28;;;;;;;27.08;20.15;;;13.20;99.90;;;;;;2079452;28;20103;-74
2022/10/24 01:42:30;;;;;;;25.00;19.23;;;13.20;99.90;;;;;;2080057;28;20451;-74
2022/10/24 01:43:37;;;;;;;23.88;18.90;;;13.20;99.90;;;;;;2079792;28;20025;-74
2022/10/24 01:44:46;;;;;;;25.98;19.25;;;13.20;99.90;;;;;;2079571;28;20029;-73
2022/10/24 01:45:53;;;;;;;26.23;19.52;;;13.20;99.90;;;;;;2079845;28;20042;-74
2022/10/24 01:47:00;;;;;;;27.52;20.58;;;13.20;99.90;;;;;;2079343;28;20056;-74
2022/10/24 01:48:04;;;;;;;27.13;19.67;;;13.20;99.90;;;;;;2083240;28;20471;-74
2022/10/24 01:49:15;;;;;;;28.65;20.75;;;13.20;99.90;;;;;;2083752;28;20018;-74
2022/10/24 01:50:18;;;;;;;26.10;19.88;;;13.20;99.90;;;;;;2085717;28;20017;-74
2022/10/24 01:51:24;;;;;;;25.30;19.00;;;13.20;99.90;;;;;;2079193;28;20033;-74
2022/10/24 01:52:29;;;;;;;24.65;18.42;;;13.20;99.90;;;;;;2080286;28;20025;-73
2022/10/24 01:53:30;;;;;;;26.30;19.95;;;13.30;99.90;;;;;;2087666;28;20029;-74
2022/10/24 01:54:32;;;;;;;26.85;19.27;;;13.20;99.90;;;;;;2079257;28;20071;-74
2022/10/24 01:55:33;;;;;;;24.38;18.80;;;13.20;99.90;;;;;;2080474;28;20637;-74
2022/10/24 01:56:34;;;;;;;28.52;21.42;;;13.20;99.90;;;;;;2080290;28;20032;-74
2022/10/24 01:57:34;;;;;;;28.23;20.30;;;13.30;99.90;;;;;;2082704;28;20037;-74
2022/10/24 01:58:35;;;;;;;28.92;20.15;;;13.20;99.90;;;;;;2083357;28;20049;-72
2022/10/24 01:59:38;;;;;;;26.95;19.80;;;13.20;99.90;;;;;;2082744;28;20037;-74
2022/10/24 02:00:41;;;;;;;27.95;20.90;;;13.20;99.90;;;;;;2079573;28;20033;-73
2022/10/24 02:01:42;;;;;;;29.30;20.63;;;13.30;99.90;;;;;;2080124;28;20060;-73
2022/10/24 02:02:46;;;;;;;32.53;21.02;;;13.20;99.90;;;;;;2079777;28;20033;-74
2022/10/24 02:03:55;;;;;;;26.25;20.33;;;13.30;99.90;;;;;;2080125;28;20067;-74
2022/10/24 02:04:56;;;;;;;33.20;21.02;;;13.30;99.90;;;;;;2076748;28;20027;-74
2022/10/24 02:06:09;;;;;;;27.65;20.77;;;13.20;99.90;;;;;;2084322;28;20025;-74
2022/10/24 02:07:12;;;;;;;27.35;20.05;;;13.20;99.90;;;;;;2078840;28;20022;-74
2022/10/24 02:08:20;;;;;;;32.15;20.60;;;13.30;99.90;;;;;;2079034;28;20025;-74
2022/10/24 02:09:23;;;;;;;26.33;19.33;;;13.30;99.90;;;;;;2079598;28;20112;-74
2022/10/24 02:10:47;;;;;;;27.85;20.27;;;13.30;99.90;;;;;;2079823;28;20037;-74
2022/10/24 02:11:49;;;;;;;27.00;20.83;;;13.20;99.90;;;;;;2079763;28;20028;-74
2022/10/24 02:12:56;;;;;;;30.45;21.15;;;13.20;99.90;;;;;;2079441;28;20712;-74
2022/10/24 02:14:17;;;;;;;28.73;21.55;;;13.20;99.90;;;;;;2079848;28;20186;-74
2022/10/24 02:15:24;;;;;;;28.08;20.88;;;13.20;99.90;;;;;;2078859;28;20036;-76
2022/10/24 02:16:25;;;;;;;26.65;19.88;;;13.20;99.90;;;;;;2079129;28;20136;-73
2022/10/24 02:17:26;;;;;;;25.63;19.48;;;13.20;99.90;;;;;;2079820;28;20026;-75
2022/10/24 02:18:28;;;;;;;32.08;21.15;;;13.20;99.90;;;;;;2079873;28;20048;-74
2022/10/24 02:19:31;;;;;;;30.70;21.15;;;13.20;99.90;;;;;;2079094;28;20068;-71
2022/10/24 02:20:41;;;;;;;27.52;20.45;;;13.20;99.90;;;;;;2079214;28;20572;-74
2022/10/24 02:21:47;;;;;;;31.60;21.35;;;13.10;99.90;;;;;;2079699;28;20139;-73
2022/10/24 02:23:02;;;;;;;26.80;19.73;;;13.10;99.90;;;;;;2079790;28;20033;-74
2022/10/24 02:24:15;;;;;;;30.58;21.45;;;13.10;99.90;;;;;;2079490;28;20036;-74
2022/10/24 02:25:23;;;;;;;25.35;19.08;;;13.10;99.90;;;;;;2079696;28;20022;-74
2022/10/24 02:26:37;;;;;;;29.65;21.35;;;13.10;99.90;;;;;;2079633;28;20037;-73
2022/10/24 02:27:48;;;;;;;30.02;22.58;;;13.10;99.90;;;;;;2079142;28;20677;-72
2022/10/24 02:28:52;;;;;;;28.00;20.15;;;13.10;99.90;;;;;;2078843;28;20629;-74
2022/10/24 02:30:15;;;;;;;27.10;19.77;;;13.10;99.90;;;;;;2079194;28;20033;-73
2022/10/24 02:31:21;;;;;;;28.15;19.83;;;13.10;99.90;;;;;;2079174;28;20032;-74
2022/10/24 02:32:36;;;;;;;26.40;20.02;;;13.10;99.90;;;;;;2078792;28;20484;-73
2022/10/24 02:33:39;;;;;;;29.88;21.13;;;13.00;99.90;;;;;;2079262;28;20083;-74
2022/10/24 02:34:41;;;;;;;28.25;20.83;;;13.00;99.90;;;;;;2079520;28;20029;-75
2022/10/24 02:35:44;;;;;;;27.88;20.80;;;13.00;99.90;;;;;;2079572;28;20037;-75
2022/10/24 02:36:48;;;;;;;31.02;22.40;;;13.00;99.90;;;;;;2077658;28;20399;-74
2022/10/24 02:37:53;;;;;;;30.52;22.25;;;13.00;99.90;;;;;;2078876;28;20037;-73
2022/10/24 02:38:55;;;;;;;29.90;20.90;;;13.00;99.90;;;;;;2078777;28;20029;-73
2022/10/24 02:39:58;;;;;;;26.55;19.98;;;13.00;99.90;;;;;;2080159;28;20049;-74
2022/10/24 02:41:01;;;;;;;25.45;19.15;;;13.00;99.90;;;;;;2081036;28;20038;-73
2022/10/24 02:42:04;;;;;;;24.58;18.35;;;12.90;99.90;;;;;;2081470;28;20068;-78
2022/10/24 02:43:06;;;;;;;24.55;18.83;;;12.90;99.90;;;;;;2081355;28;20063;-74
2022/10/24 02:44:07;;;;;;;22.38;17.65;;;12.90;99.90;;;;;;2081007;28;20025;-74
2022/10/24 02:45:12;;;;;;;25.20;18.77;;;12.90;99.90;;;;;;2085780;28;20488;-74
2022/10/24 02:46:14;;;;;;;25.58;18.80;;;12.90;99.90;;;;;;2084081;28;20029;-74
2022/10/24 02:47:18;;;;;;;25.92;18.35;;;12.80;99.90;;;;;;2086765;28;20029;-74
2022/10/24 02:48:22;;;;;;;22.17;17.42;;;12.80;99.90;;;;;;2089773;28;20098;-74
2022/10/24 02:49:23;;;;;;;23.73;17.83;;;12.80;99.90;;;;;;2089297;28;20025;-74
2022/10/24 02:50:25;;;;;;;23.10;17.40;;;12.80;99.90;;;;;;2089613;28;20056;-74
2022/10/24 02:51:29;;;;;;;34.63;23.15;;;12.80;99.90;;;;;;2089519;28;20032;-75
2022/10/24 02:52:31;;;;;;;32.80;21.55;;;12.80;99.90;;;;;;2088342;28;20101;-74
2022/10/24 02:53:35;;;;;;;28.90;21.23;;;12.80;99.90;;;;;;2088739;28;20051;-75
2022/10/24 02:54:35;;;;;;;28.80;20.30;;;12.80;99.90;;;;;;2089157;28;20032;-74
2022/10/24 02:55:36;;;;;;;28.80;20.13;;;12.80;99.90;;;;;;2082089;28;20035;-74
2022/10/24 02:56:42;;;;;;;27.02;19.73;;;12.80;99.90;;;;;;2081013;28;20033;-73
2022/10/24 02:57:43;;;;;;;31.92;22.13;;;12.80;99.90;;;;;;2081139;28;20060;-74
2022/10/24 02:58:43;;;;;;;31.23;21.48;;;12.90;99.90;;;;;;2081030;28;20029;-74
2022/10/24 02:59:44;;;;;;;28.83;20.85;;;12.90;99.90;;;;;;2081288;28;20022;-77
2022/10/24 03:00:45;;;;;;;28.13;20.50;;;12.90;99.90;;;;;;2080692;28;20029;-75
2022/10/24 03:01:45;;;;;;;30.52;21.23;;;12.90;99.90;;;;;;2083992;28;20032;-73
2022/10/24 03:02:46;;;;;;;29.83;20.60;;;12.90;99.90;;;;;;2081321;28;20025;-75
2022/10/24 03:03:47;;;;;;;27.75;19.67;;;12.90;99.90;;;;;;2081429;28;20125;-73
2022/10/24 03:04:47;;;;;;;28.45;19.73;;;13.00;99.90;;;;;;2081154;28;20083;-76
2022/10/24 03:05:48;;;;;;;28.75;19.85;;;13.00;99.90;;;;;;2081056;28;20121;-74
2022/10/24 03:06:48;;;;;;;27.52;18.92;;;13.00;99.90;;;;;;2081221;28;20112;-74
2022/10/24 03:07:49;;;;;;;24.92;18.40;;;13.00;99.90;;;;;;2081105;28;20025;-74
2022/10/24 03:08:50;;;;;;;24.77;18.95;;;13.10;99.90;;;;;;2081027;28;20017;-74
2022/10/24 03:09:50;;;;;;;25.38;19.08;;;13.00;99.90;;;;;;2080557;28;20033;-74
2022/10/24 03:10:51;;;;;;;28.30;19.40;;;13.10;99.90;;;;;;2080539;28;20466;-73
2022/10/24 03:11:51;;;;;;;26.65;19.42;;;13.10;99.90;;;;;;2080371;28;20114;-73
2022/10/24 03:12:52;;;;;;;24.30;18.17;;;13.10;99.90;;;;;;2080411;28;20029;-73
2022/10/24 03:13:53;;;;;;;25.83;18.85;;;13.10;99.90;;;;;;2080595;28;20037;-73
2022/10/24 03:14:53;;;;;;;27.98;19.13;;;13.10;99.90;;;;;;2080737;28;20614;-73
2022/10/24 03:15:54;;;;;;;25.27;17.92;;;13.10;99.90;;;;;;2080719;28;20136;-73
2022/10/24 03:16:55;;;;;;;23.88;17.27;;;13.10;99.90;;;;;;2080827;28;20124;-74
2022/10/24 03:17:55;;;;;;;22.83;17.25;;;13.10;99.90;;;;;;2080960;28;20025;-73
2022/10/24 03:18:56;;;;;;;33.10;21.92;;;13.10;99.90;;;;;;2080715;28;20034;-73
2022/10/24 03:19:57;;;;;;;30.13;20.80;;;13.10;99.90;;;;;;2080976;28;20025;-73
2022/10/24 03:20:57;;;;;;;28.35;20.35;;;13.10;99.90;;;;;;2071907;28;20030;-74
2022/10/24 03:21:58;;;;;;;27.50;20.00;;;13.10;99.90;;;;;;2080236;28;20038;-73
2022/10/24 03:22:59;;;;;;;30.10;20.55;;;13.10;99.90;;;;;;2096657;28;20032;-74
2022/10/24 03:23:59;;;;;;;30.55;22.23;;;13.10;99.90;;;;;;2080781;28;20053;-73
2022/10/24 03:25:02;;;;;;;31.02;21.50;;;13.10;99.90;;;;;;2080826;28;20076;-73
2022/10/24 03:26:02;;;;;;;31.02;21.02;;;13.10;99.90;;;;;;2080845;28;20037;-73
2022/10/24 03:27:03;;;;;;;29.00;20.38;;;13.10;99.90;;;;;;2080662;28;20025;-73
2022/10/24 03:28:04;;;;;;;32.95;21.73;;;13.10;99.90;;;;;;2080683;28;20056;-73
2022/10/24 03:29:05;;;;;;;34.25;21.83;;;13.20;99.90;;;;;;2080255;28;20030;-73
2022/10/24 03:30:06;;;;;;;34.55;22.20;;;13.20;99.90;;;;;;2080734;28;20037;-73
2022/10/24 03:31:07;;;;;;;31.30;21.02;;;13.20;99.90;;;;;;2079932;28;20037;-73
2022/10/24 03:32:07;;;;;;;29.60;20.48;;;13.20;99.90;;;;;;2080228;28;20026;-73
2022/10/24 03:33:08;;;;;;;31.48;21.08;;;13.20;99.90;;;;;;2079770;28;20033;-73
2022/10/24 03:34:09;;;;;;;31.63;20.40;;;13.20;99.90;;;;;;2080581;28;20029;-73
2022/10/24 03:35:09;;;;;;;26.92;19.13;;;13.20;99.90;;;;;;2080559;28;20021;-73
2022/10/24 03:36:10;;;;;;;27.05;19.17;;;13.20;99.90;;;;;;2079867;28;20033;-73
2022/10/24 03:37:11;;;;;;;27.70;19.05;;;13.20;99.90;;;;;;2080115;28;20056;-73
2022/10/24 03:38:12;;;;;;;32.67;21.23;;;13.20;99.90;;;;;;2088607;28;20021;-74
2022/10/24 03:39:12;;;;;;;29.25;20.58;;;13.10;99.90;;;;;;2080453;28;20032;-74
2022/10/24 03:40:13;;;;;;;29.13;20.67;;;13.10;99.90;;;;;;2080475;28;20029;-74
2022/10/24 03:41:14;;;;;;;26.85;19.10;;;13.10;99.90;;;;;;2086703;28;20078;-74
2022/10/24 03:42:14;;;;;;;33.65;21.60;;;13.10;99.90;;;;;;2083791;28;20029;-73
2022/10/24 03:43:15;;;;;;;29.90;20.08;;;13.10;99.90;;;;;;2087059;28;20021;-73
2022/10/24 03:44:16;;;;;;;32.22;21.50;;;13.10;99.90;;;;;;2089599;28;20062;-73
2022/10/24 03:45:16;;;;;;;28.92;19.92;;;13.10;99.90;;;;;;2089960;28;20116;-74
2022/10/24 03:46:17;;;;;;;28.70;19.60;;;13.00;99.90;;;;;;2089525;28;20032;-74
2022/10/24 03:47:18;;;;;;;27.38;18.90;;;13.00;99.90;;;;;;2089067;28;20033;-74
2022/10/24 03:48:19;;;;;;;25.65;18.17;;;13.00;99.90;;;;;;2088527;28;20033;-73
2022/10/24 03:49:19;;;;;;;31.30;20.42;;;12.90;99.90;;;;;;2088431;28;20743;-74
2022/10/24 03:50:20;;;;;;;37.92;24.08;;;12.90;99.90;;;;;;2089248;28;20025;-74
2022/10/24 03:51:21;;;;;;;38.33;25.30;;;12.90;99.90;;;;;;2088911;28;20490;-74
2022/10/24 03:52:21;;;;;;;42.30;25.60;;;12.90;99.90;;;;;;2089047;28;20025;-74
2022/10/24 03:53:22;;;;;;;35.13;23.30;;;12.90;99.90;;;;;;2089350;28;20510;-74
2022/10/24 03:54:23;;;;;;;33.92;23.08;;;12.90;99.90;;;;;;2088826;28;20029;-74
2022/10/24 03:55:24;;;;;;;31.48;21.52;;;12.90;99.90;;;;;;2083149;28;20029;-73
2022/10/24 03:56:25;;;;;;;30.02;20.88;;;12.90;99.90;;;;;;2080624;28;20084;-73
2022/10/24 03:57:25;;;;;;;30.05;20.65;;;12.90;99.90;;;;;;2075061;28;20034;-73
2022/10/24 03:58:26;;;;;;;29.65;20.02;;;12.80;99.90;;;;;;2081297;28;20067;-74
2022/10/24 03:59:27;;;;;;;30.17;20.65;;;12.80;99.90;;;;;;2079506;28;20033;-73
2022/10/24 04:00:28;;;;;;;27.85;19.90;;;12.80;99.90;;;;;;2080149;28;20063;-74
2022/10/24 04:01:28;;;;;;;31.90;21.67;;;12.80;99.90;;;;;;2080028;28;20056;-73
2022/10/24 04:02:29;;;;;;;34.45;23.23;;;12.70;99.90;;;;;;2079878;28;20479;-73
2022/10/24 04:03:30;;;;;;;35.30;22.88;;;12.70;99.90;;;;;;2079860;28;20042;-73
2022/10/24 04:04:31;;;;;;;32.38;22.50;;;12.70;99.90;;;;;;2080410;28;20029;-73
2022/10/24 04:05:33;;;;;;;33.15;22.67;;;12.70;99.90;;;;;;2080526;28;20025;-74
2022/10/24 04:06:33;;;;;;;34.38;23.50;;;12.70;99.90;;;;;;2080584;28;20066;-73
2022/10/24 04:07:34;;;;;;;32.70;22.05;;;12.70;99.90;;;;;;2080603;28;20025;-73
2022/10/24 04:08:34;;;;;;;38.03;25.10;;;12.60;99.90;;;;;;2080057;28;20018;-73
2022/10/24 04:09:35;;;;;;;38.67;27.20;;;12.60;99.90;;;;;;2080490;28;20034;-73
2022/10/24 04:10:36;;;;;;;39.67;26.17;;;12.60;99.90;;;;;;2080522;28;20100;-74
2022/10/24 04:11:36;;;;;;;32.67;24.00;;;12.60;99.90;;;;;;2080504;28;20168;-73
2022/10/24 04:12:37;;;;;;;37.17;24.95;;;12.60;99.90;;;;;;2080464;28;20097;-73
2022/10/24 04:13:39;;;;;;;37.70;25.27;;;12.60;99.90;;;;;;2080544;28;20443;-73
2022/10/24 04:14:40;;;;;;;37.08;25.27;;;12.60;99.90;;;;;;2080360;28;20021;-73
2022/10/24 04:15:41;;;;;;;35.90;24.73;;;12.60;99.90;;;;;;2080372;28;20029;-73
2022/10/24 04:16:41;;;;;;;43.92;25.20;;;12.60;99.90;;;;;;2080703;28;20463;-74
2022/10/24 04:17:42;;;;;;;55.38;25.42;;;12.60;99.90;;;;;;2080778;28;20029;-74
2022/10/24 04:18:43;;;;;;;39.03;26.05;;;12.60;99.90;;;;;;2080103;28;20774;-74
2022/10/24 04:19:43;;;;;;;37.20;25.38;;;12.60;99.90;;;;;;2080481;28;20480;-74
2022/10/24 04:20:44;;;;;;;37.72;23.92;;;12.60;99.90;;;;;;2080404;28;20032;-74
2022/10/24 04:21:46;;;;;;;38.38;24.30;;;12.60;99.90;;;;;;2080426;28;20084;-74
2022/10/24 04:22:47;;;;;;;39.15;24.73;;;12.70;99.90;;;;;;2081093;28;20033;-76
2022/10/24 04:23:48;;;;;;;36.83;23.20;;;12.70;99.90;;;;;;2080603;28;20088;-76
2022/10/24 04:24:49;;;;;;;38.10;25.02;;;12.70;99.90;;;;;;2080579;28;20034;-79
2022/10/24 04:25:49;;;;;;;37.45;25.08;;;12.70;99.90;;;;;;2081234;28;20106;-76
2022/10/24 04:26:50;;;;;;;35.63;24.65;;;12.70;99.90;;;;;;2081007;28;20112;-76
2022/10/24 04:27:51;;;;;;;36.95;23.58;;;12.70;99.90;;;;;;2080986;28;20033;-76
2022/10/24 04:28:51;;;;;;;35.65;24.17;;;12.70;99.90;;;;;;2080835;28;20040;-76
2022/10/24 04:29:52;;;;;;;34.35;22.75;;;12.70;99.90;;;;;;2080754;28;20411;-76
2022/10/24 04:30:54;;;;;;;32.80;22.58;;;12.60;99.90;;;;;;2080909;28;20036;-75
2022/10/24 04:31:55;;;;;;;31.77;23.08;;;12.70;99.90;;;;;;2080502;28;20026;-76
2022/10/24 04:32:55;;;;;;;32.22;22.98;;;12.70;99.90;;;;;;2071953;28;20060;-75
2022/10/24 04:33:56;;;;;;;34.83;23.98;;;12.60;99.90;;;;;;2068962;28;20026;-75
2022/10/24 04:34:57;;;;;;;33.92;23.85;;;12.60;99.90;;;;;;2063796;28;20034;-76
2022/10/24 04:35:58;;;;;;;31.20;22.67;;;12.60;99.90;;;;;;2072120;28;20152;-76
2022/10/24 04:36:58;;;;;;;30.42;22.33;;;12.50;99.90;;;;;;2079717;28;20111;-75
2022/10/24 04:37:59;;;;;;;30.83;21.50;;;12.50;99.90;;;;;;2085614;28;20021;-76
2022/10/24 04:38:59;;;;;;;30.60;22.02;;;12.50;99.90;;;;;;2084164;28;20025;-74
2022/10/24 04:40:00;;;;;;;33.45;22.55;;;12.50;99.90;;;;;;2089366;28;20364;-75
2022/10/24 04:41:01;;;;;;;32.55;22.80;;;12.50;99.90;;;;;;2088938;28;20049;-77
2022/10/24 04:42:01;;;;;;;30.50;22.05;;;12.40;99.90;;;;;;2088932;28;20037;-76
2022/10/24 04:43:02;;;;;;;30.10;21.40;;;12.40;99.90;;;;;;2089421;28;20111;-76
2022/10/24 04:44:03;;;;;;;29.15;21.90;;;12.40;99.90;;;;;;2089904;28;20033;-77
2022/10/24 04:45:04;;;;;;;37.80;26.50;;;12.40;99.90;;;;;;2089595;28;20467;-76
2022/10/24 04:46:05;;;;;;;38.50;26.10;;;12.40;99.90;;;;;;2088709;28;20017;-76
2022/10/24 04:47:06;;;;;;;41.20;28.05;;;12.40;99.90;;;;;;2088757;28;20029;-72
2022/10/24 04:48:06;;;;;;;38.05;26.85;;;12.40;99.90;;;;;;2089334;28;20035;-73
2022/10/24 04:49:08;;;;;;;37.13;26.35;;;12.40;99.90;;;;;;2088962;28;20056;-72
2022/10/24 04:50:09;;;;;;;36.13;25.77;;;12.40;99.90;;;;;;2089138;28;20135;-72
2022/10/24 04:51:10;;;;;;;36.30;24.35;;;12.40;99.90;;;;;;2088763;28;20047;-73
2022/10/24 04:52:11;;;;;;;32.65;23.90;;;12.40;99.90;;;;;;2088824;28;20025;-73
2022/10/24 04:53:12;;;;;;;30.75;22.63;;;12.40;99.90;;;;;;2085704;28;20032;-73
2022/10/24 04:54:12;;;;;;;29.85;22.50;;;12.40;99.90;;;;;;2077576;28;20072;-72
2022/10/24 04:55:13;;;;;;;28.33;21.27;;;12.40;99.90;;;;;;2080273;28;20393;-72
2022/10/24 04:56:14;;;;;;;32.00;22.75;;;12.40;99.90;;;;;;2080298;28;20053;-72
2022/10/24 04:57:14;;;;;;;37.03;25.98;;;12.40;99.90;;;;;;2079550;28;20507;-73
2022/10/24 04:58:15;;;;;;;34.45;24.20;;;12.40;99.90;;;;;;2079766;28;20096;-72
2022/10/24 04:59:16;;;;;;;31.67;22.95;;;12.40;99.90;;;;;;2080317;28;20771;-73
2022/10/24 05:00:16;;;;;;;29.38;21.45;;;12.40;99.90;;;;;;2079867;28;20033;-73
2022/10/24 05:01:17;;;;;;;29.45;21.23;;;12.40;99.90;;;;;;2079822;28;20036;-73
2022/10/24 05:02:18;;;;;;;29.90;21.15;;;12.40;99.90;;;;;;2080067;28;20017;-73
2022/10/24 05:03:20;;;;;;;30.15;20.88;;;12.40;99.90;;;;;;2080136;28;20033;-73
2022/10/24 05:04:21;;;;;;;28.52;19.60;;;12.40;99.90;;;;;;2080251;28;20037;-73
2022/10/24 05:05:21;;;;;;;32.80;22.05;;;12.40;99.90;;;;;;2080527;28;20053;-73
2022/10/24 05:06:22;;;;;;;34.03;24.27;;;12.40;99.90;;;;;;2079830;28;20049;-73
2022/10/24 05:07:23;;;;;;;34.38;24.05;;;12.40;99.90;;;;;;2079882;28;20029;-72
2022/10/24 05:08:23;;;;;;;32.72;23.42;;;12.40;99.90;;;;;;2080867;28;20041;-73
2022/10/24 05:09:24;;;;;;;30.65;21.25;;;12.40;99.90;;;;;;2080377;28;20045;-73
2022/10/24 05:10:25;;;;;;;30.70;20.27;;;12.40;99.90;;;;;;2081502;28;20491;-73
2022/10/24 05:11:25;;;;;;;27.90;20.08;;;12.40;99.90;;;;;;2081093;28;20045;-73
2022/10/24 05:12:26;;;;;;;29.05;19.35;;;12.40;99.90;;;;;;2081545;28;20103;-73
2022/10/24 05:13:27;;;;;;;29.13;20.58;;;12.40;99.90;;;;;;2080497;28;20654;-72
2022/10/24 05:14:27;;;;;;;28.35;20.17;;;12.40;99.90;;;;;;2080150;28;20025;-72
2022/10/24 05:15:28;;;;;;;32.55;20.05;;;12.40;99.90;;;;;;2080242;28;20041;-73
2022/10/24 05:16:29;;;;;;;30.85;19.15;;;12.40;99.90;;;;;;2080519;28;20124;-72
2022/10/24 05:17:30;;;;;;;26.73;18.55;;;12.50;99.90;;;;;;2079728;28;20037;-72
2022/10/24 05:18:31;;;;;;;25.42;17.83;;;12.50;99.90;;;;;;2079572;28;20546;-72
2022/10/24 05:19:32;;;;;;;23.88;17.90;;;12.40;99.90;;;;;;2080652;28;20091;-74
2022/10/24 05:20:32;;;;;;;25.48;17.00;;;12.40;99.90;;;;;;2080527;28;20156;-72
2022/10/24 05:21:33;;;;;;;24.33;17.58;;;12.40;99.90;;;;;;2080547;28;20033;-72
2022/10/24 05:22:33;;;;;;;25.48;17.83;;;12.40;99.90;;;;;;2079554;28;20128;-73
2022/10/24 05:23:34;;;;;;;26.98;18.30;;;12.40;99.90;;;;;;2079869;28;20033;-73
2022/10/24 05:24:35;;;;;;;23.27;16.80;;;12.40;99.90;;;;;;2080349;28;20040;-73